Time;durP1;ratioP1;P1;durP2;ratioP2;P2;SDS_P1;SDS_P2;PMS_P1;PMS_P2;Temp;Humidity;BMP_temperature;BMP_pressure;BME280_temperature;BME280_humidity;BME280_pressure;Samples;Min_cycle;Max_cycle;Signal;HPM_P1;HPM_P2
2022/04/24 00:01:10;;;;;;;;;;;15.10;89.30;;;;;;4345482;33;44291;-81
2022/04/24 00:03:37;;;;;;;;;;;15.10;89.40;;;;;;4359254;32;43473;-80
2022/04/24 00:06:05;;;;;;;;;;;15.10;89.30;;;;;;4335024;32;43923;-81
2022/04/24 00:08:32;;;;;;;;;;;15.10;89.20;;;;;;4360473;32;43769;-81
2022/04/24 00:11:00;;;;;;;;;;;15.10;89.10;;;;;;4346750;32;43798;-81
2022/04/24 00:13:31;;;;;;;;;;;15.10;88.50;;;;;;4346715;32;44519;-81
2022/04/24 00:15:58;;;;;;;;;;;15.10;89.20;;;;;;4360210;32;44200;-80
2022/04/24 00:18:25;;;;;;;;;;;15.10;87.80;;;;;;4346700;32;43365;-81
2022/04/24 00:20:53;;;;;;;;;;;15.10;88.10;;;;;;4346909;32;44852;-80
2022/04/24 00:23:20;;;;;;;;;;;15.10;88.00;;;;;;4347087;32;44783;-81
2022/04/24 00:25:47;;;;;;;;;;;15.10;88.20;;;;;;4346632;32;43470;-81
2022/04/24 00:28:14;;;;;;;;;;;15.00;88.60;;;;;;4359963;32;42868;-80
2022/04/24 00:30:41;;;;;;;;;;;15.00;88.20;;;;;;4360073;32;44287;-80
2022/04/24 00:33:08;;;;;;;;;;;15.00;87.70;;;;;;4359843;32;43874;-81
2022/04/24 00:35:35;;;;;;;;;;;15.00;87.30;;;;;;4346969;32;43224;-80
2022/04/24 00:38:02;;;;;;;;;;;15.00;88.10;;;;;;4359780;32;43306;-80
2022/04/24 00:40:29;;;;;;;;;;;15.00;87.70;;;;;;4359824;32;44237;-81
2022/04/24 00:42:56;;;;;;;;;;;15.00;87.50;;;;;;4346544;32;43945;-81
2022/04/24 00:45:23;;;;;;;;;;;15.00;87.30;;;;;;4359763;32;43095;-81
2022/04/24 00:47:51;;;;;;;;;;;14.90;87.10;;;;;;4346861;32;43038;-81
2022/04/24 00:50:18;;;;;;;;;;;14.90;86.70;;;;;;4346832;32;43223;-81
2022/04/24 00:52:46;;;;;;;;;;;14.90;86.80;;;;;;4359753;32;43239;-81
2022/04/24 00:55:13;;;;;;;;;;;14.90;86.70;;;;;;4360129;32;43959;-81
2022/04/24 00:57:41;;;;;;;;;;;14.90;87.00;;;;;;4346295;33;43929;-81
2022/04/24 01:00:08;;;;;;;;;;;14.90;87.40;;;;;;4346844;33;43229;-81
2022/04/24 01:02:37;;;;;;;;;;;14.90;87.20;;;;;;4346081;33;43314;-81
2022/04/24 01:05:05;;;;;;;;;;;14.90;87.00;;;;;;4360184;33;44106;-81
2022/04/24 01:07:32;;;;;;;;;;;14.90;86.60;;;;;;4346257;33;42818;-81
2022/04/24 01:10:00;;;;;;;;;;;14.90;86.70;;;;;;4346243;33;43349;-81
2022/04/24 01:12:27;;;;;;;;;;;14.80;86.40;;;;;;4346598;33;43507;-81
2022/04/24 01:14:54;;;;;;;;;;;14.80;86.60;;;;;;4359880;33;44296;-81
2022/04/24 01:17:21;;;;;;;;;;;14.80;86.00;;;;;;4359801;33;42670;-81
2022/04/24 01:19:49;;;;;;;;;;;14.70;86.80;;;;;;4359496;33;43505;-81
2022/04/24 01:22:17;;;;;;;;;;;14.70;86.30;;;;;;4346346;33;44640;-81
2022/04/24 01:24:45;;;;;;;;;;;14.70;87.10;;;;;;4360016;33;43124;-81
2022/04/24 01:27:12;;;;;;;;;;;14.60;87.00;;;;;;4359708;33;43015;-81
2022/04/24 01:29:40;;;;;;;;;;;14.60;86.60;;;;;;4346052;33;42997;-81
2022/04/24 01:32:07;;;;;;;;;;;14.60;86.50;;;;;;4359358;33;43272;-81
2022/04/24 01:34:34;;;;;;;;;;;14.50;86.30;;;;;;4359867;33;43185;-81
2022/04/24 01:37:02;;;;;;;;;;;14.50;85.70;;;;;;4359371;33;43633;-81
2022/04/24 01:39:29;;;;;;;;;;;14.50;86.30;;;;;;4346087;33;43863;-81
2022/04/24 01:41:56;;;;;;;;;;;14.50;85.90;;;;;;4345888;33;42842;-81
2022/04/24 01:44:23;;;;;;;;;;;14.40;86.20;;;;;;4346231;33;44175;-81
2022/04/24 01:46:50;;;;;;;;;;;14.50;86.10;;;;;;4359844;33;44427;-81
2022/04/24 01:49:17;;;;;;;;;;;14.50;86.40;;;;;;4345911;33;42911;-81
2022/04/24 01:51:44;;;;;;;;;;;14.40;86.50;;;;;;4346477;33;43125;-81
2022/04/24 01:54:11;;;;;;;;;;;14.40;86.80;;;;;;4361782;32;44058;-81
2022/04/24 01:56:38;;;;;;;;;;;14.40;86.50;;;;;;4362221;32;42547;-81
2022/04/24 01:59:05;;;;;;;;;;;14.40;86.80;;;;;;4348605;32;43054;-81
2022/04/24 02:01:33;;;;;;;;;;;14.40;85.90;;;;;;4348719;32;43860;-81
2022/04/24 02:04:00;;;;;;;;;;;14.40;86.10;;;;;;4349137;32;43481;-81
2022/04/24 02:06:28;;;;;;;;;;;14.30;85.30;;;;;;4361945;32;42760;-81
2022/04/24 02:08:56;;;;;;;;;;;14.30;86.20;;;;;;4348467;32;44806;-81
2022/04/24 02:11:23;;;;;;;;;;;14.30;86.40;;;;;;4348588;32;42900;-81
2022/04/24 02:13:50;;;;;;;;;;;14.30;87.60;;;;;;4362056;32;43016;-81
2022/04/24 02:16:17;;;;;;;;;;;14.30;86.30;;;;;;4348903;32;44311;-81
2022/04/24 02:18:44;;;;;;;;;;;14.20;85.50;;;;;;4361999;32;45291;-81
2022/04/24 02:21:13;;;;;;;;;;;14.20;86.10;;;;;;4348580;32;42171;-81
2022/04/24 02:23:40;;;;;;;;;;;14.20;85.80;;;;;;4362176;32;43254;-81
2022/04/24 02:26:07;;;;;;;;;;;14.20;85.30;;;;;;4362312;32;43100;-81
2022/04/24 02:28:35;;;;;;;;;;;14.20;86.30;;;;;;4361944;32;42790;-81
2022/04/24 02:31:02;;;;;;;;;;;14.20;86.20;;;;;;4361915;32;44645;-81
2022/04/24 02:33:29;;;;;;;;;;;14.20;85.80;;;;;;4361526;32;44222;-81
2022/04/24 02:35:56;;;;;;;;;;;14.20;85.20;;;;;;4362026;32;44032;-81
2022/04/24 02:38:23;;;;;;;;;;;14.20;85.80;;;;;;4348565;32;43405;-81
2022/04/24 02:40:50;;;;;;;;;;;14.20;86.40;;;;;;4347998;32;42587;-81
2022/04/24 02:43:17;;;;;;;;;;;14.20;85.40;;;;;;4361321;32;43131;-81
2022/04/24 02:45:45;;;;;;;;;;;14.20;85.90;;;;;;4348324;32;43297;-81
2022/04/24 02:48:12;;;;;;;;;;;14.20;86.30;;;;;;4348501;32;44175;-81
2022/04/24 02:50:39;;;;;;;;;;;14.20;86.20;;;;;;4361834;32;44211;-81
2022/04/24 02:53:07;;;;;;;;;;;14.10;85.00;;;;;;4348141;32;42807;-81
2022/04/24 02:55:34;;;;;;;;;;;14.10;84.90;;;;;;4348117;32;44050;-81
2022/04/24 02:58:01;;;;;;;;;;;14.10;85.80;;;;;;4361171;32;43292;-81
2022/04/24 03:00:39;;;;;;;;;;;14.10;85.30;;;;;;4361084;32;43831;-81
2022/04/24 03:03:10;;;;;;;;;;;14.10;85.70;;;;;;4360800;32;43347;-81
2022/04/24 03:05:37;;;;;;;;;;;14.10;85.90;;;;;;4348079;32;44258;-82
2022/04/24 03:08:04;;;;;;;;;;;14.10;86.00;;;;;;4361045;32;42569;-82
2022/04/24 03:10:32;;;;;;;;;;;14.00;85.80;;;;;;4361374;32;45193;-81
2022/04/24 03:12:59;;;;;;;;;;;14.00;85.90;;;;;;4361311;32;43907;-81
2022/04/24 03:15:26;;;;;;;;;;;14.00;85.40;;;;;;4361621;32;44147;-81
2022/04/24 03:17:54;;;;;;;;;;;14.00;85.00;;;;;;4361141;32;43403;-81
2022/04/24 03:20:24;;;;;;;;;;;14.00;85.90;;;;;;4360744;32;45453;-81
2022/04/24 03:22:52;;;;;;;;;;;13.90;85.40;;;;;;4347410;32;44242;-81
2022/04/24 03:25:19;;;;;;;;;;;13.90;85.50;;;;;;4347428;32;42631;-81
2022/04/24 03:27:46;;;;;;;;;;;13.90;85.20;;;;;;4347809;32;44197;-81
2022/04/24 03:30:13;;;;;;;;;;;13.80;85.10;;;;;;4347338;32;42905;-81
2022/04/24 03:32:41;;;;;;;;;;;13.80;85.50;;;;;;4347618;32;42243;-81
2022/04/24 03:35:09;;;;;;;;;;;13.80;86.20;;;;;;4347518;32;39641;-81
2022/04/24 03:37:38;;;;;;;;;;;13.90;86.30;;;;;;4360620;32;42934;-81
2022/04/24 03:40:06;;;;;;;;;;;13.90;86.00;;;;;;4347593;32;45062;-81
2022/04/24 03:42:33;;;;;;;;;;;13.90;85.80;;;;;;4347582;32;43903;-81
2022/04/24 03:45:00;;;;;;;;;;;13.80;85.90;;;;;;4360834;32;45779;-81
2022/04/24 03:47:27;;;;;;;;;;;13.90;85.40;;;;;;4360679;32;44290;-81
2022/04/24 03:49:54;;;;;;;;;;;13.80;85.80;;;;;;4360416;32;44405;-81
2022/04/24 03:52:22;;;;;;;;;;;13.80;84.90;;;;;;4347375;32;44078;-81
2022/04/24 03:54:48;;;;;;;;;;;13.80;85.60;;;;;;4347335;32;41947;-81
2022/04/24 03:57:15;;;;;;;;;;;13.80;85.60;;;;;;4360268;32;43083;-81
2022/04/24 03:59:43;;;;;;;;;;;13.80;86.30;;;;;;4360482;32;44875;-81
2022/04/24 04:02:09;;;;;;;;;;;13.80;87.20;;;;;;4360073;32;44172;-81
2022/04/24 04:04:37;;;;;;;;;;;13.70;86.10;;;;;;4360957;32;42874;-81
2022/04/24 04:07:05;;;;;;;;;;;13.80;86.90;;;;;;4346890;32;44811;-80
2022/04/24 04:09:32;;;;;;;;;;;13.70;86.40;;;;;;4347201;32;43890;-80
2022/04/24 04:11:59;;;;;;;;;;;13.80;86.70;;;;;;4347245;32;44576;-81
2022/04/24 04:14:26;;;;;;;;;;;13.70;86.40;;;;;;4360351;32;43013;-80
2022/04/24 04:16:53;;;;;;;;;;;13.70;86.60;;;;;;4359883;32;43191;-80
2022/04/24 04:19:21;;;;;;;;;;;13.70;87.00;;;;;;4360305;32;44299;-80
2022/04/24 04:21:48;;;;;;;;;;;13.70;86.50;;;;;;4334419;32;44763;-80
2022/04/24 04:24:15;;;;;;;;;;;13.70;87.00;;;;;;4359893;32;42959;-80
2022/04/24 04:26:42;;;;;;;;;;;13.70;86.50;;;;;;4346810;32;43900;-80
2022/04/24 04:29:09;;;;;;;;;;;13.70;87.10;;;;;;4346939;32;37454;-80
2022/04/24 04:31:37;;;;;;;;;;;13.60;86.90;;;;;;4346551;32;44388;-80
2022/04/24 04:34:06;;;;;;;;;;;13.60;86.70;;;;;;4360339;32;43972;-80
2022/04/24 04:36:33;;;;;;;;;;;13.60;86.50;;;;;;4360144;32;45335;-80
2022/04/24 04:39:00;;;;;;;;;;;13.60;86.70;;;;;;4359947;32;43360;-81
2022/04/24 04:41:27;;;;;;;;;;;13.60;87.00;;;;;;4346722;32;43460;-80
2022/04/24 04:43:54;;;;;;;;;;;13.60;87.10;;;;;;4359753;32;44895;-80
2022/04/24 04:46:21;;;;;;;;;;;13.60;87.30;;;;;;4346776;32;45162;-80
2022/04/24 04:48:48;;;;;;;;;;;13.50;87.40;;;;;;4346419;32;43481;-80
2022/04/24 04:51:15;;;;;;;;;;;13.60;87.60;;;;;;4360107;32;43408;-80
2022/04/24 04:53:42;;;;;;;;;;;13.50;87.70;;;;;;4346902;32;43862;-80
2022/04/24 04:56:09;;;;;;;;;;;13.50;87.50;;;;;;4346252;32;43302;-80
2022/04/24 04:58:36;;;;;;;;;;;13.50;87.20;;;;;;4360113;33;43496;-80
2022/04/24 05:01:04;;;;;;;;;;;13.40;87.40;;;;;;4360105;33;45015;-80
2022/04/24 05:03:31;;;;;;;;;;;13.40;87.30;;;;;;4359394;33;42956;-80
2022/04/24 05:05:58;;;;;;;;;;;13.40;87.60;;;;;;4359895;33;46057;-80
2022/04/24 05:08:25;;;;;;;;;;;13.30;87.80;;;;;;4346571;33;45229;-80
2022/04/24 05:10:52;;;;;;;;;;;13.30;88.00;;;;;;4346756;33;45070;-80
2022/04/24 05:13:20;;;;;;;;;;;13.30;87.80;;;;;;4359992;33;44171;-80
2022/04/24 05:15:47;;;;;;;;;;;13.30;88.20;;;;;;4359908;33;44250;-80
2022/04/24 05:18:14;;;;;;;;;;;13.30;88.40;;;;;;4346595;33;44238;-80
2022/04/24 05:20:43;;;;;;;;;;;13.30;88.40;;;;;;4359883;33;42810;-80
2022/04/24 05:23:10;;;;;;;;;;;13.30;88.40;;;;;;4359461;33;44278;-80
2022/04/24 05:25:37;;;;;;;;;;;13.30;88.80;;;;;;4359443;33;43860;-80
2022/04/24 05:28:05;;;;;;;;;;;13.30;88.80;;;;;;4349038;32;43213;-80
2022/04/24 05:30:33;;;;;;;;;;;13.30;88.50;;;;;;4349015;32;42355;-80
2022/04/24 05:33:00;;;;;;;;;;;13.30;88.40;;;;;;4362590;32;44389;-80
2022/04/24 05:35:28;;;;;;;;;;;13.20;88.70;;;;;;4349068;32;42524;-80
2022/04/24 05:37:55;;;;;;;;;;;13.20;89.10;;;;;;4362237;32;43890;-80
2022/04/24 05:40:22;;;;;;;;;;;13.20;89.10;;;;;;4362547;32;44322;-80
2022/04/24 05:42:51;;;;;;;;;;;13.20;89.00;;;;;;4349093;32;43302;-80
2022/04/24 05:45:18;;;;;;;;;;;13.30;88.50;;;;;;4362154;32;42327;-80
2022/04/24 05:47:46;;;;;;;;;;;13.20;88.40;;;;;;4362557;32;43464;-80
2022/04/24 05:50:13;;;;;;;;;;;13.30;88.90;;;;;;4362446;32;44240;-80
2022/04/24 05:52:41;;;;;;;;;;;13.30;88.70;;;;;;4349303;32;43247;-80
2022/04/24 05:55:08;;;;;;;;;;;13.30;88.50;;;;;;4348651;32;40019;-80
2022/04/24 05:57:36;;;;;;;;;;;13.30;88.30;;;;;;4348614;32;43663;-80
2022/04/24 06:00:07;;;;;;;;;;;13.40;88.50;;;;;;4349157;32;39826;-80
2022/04/24 06:02:34;;;;;;;;;;;13.40;88.50;;;;;;4348636;32;44768;-80
2022/04/24 06:05:02;;;;;;;;;;;13.40;88.30;;;;;;4348872;32;45236;-80
2022/04/24 06:07:29;;;;;;;;;;;13.40;88.60;;;;;;4348969;32;43110;-80
2022/04/24 06:09:56;;;;;;;;;;;13.40;88.30;;;;;;4348954;32;43242;-80
2022/04/24 06:12:24;;;;;;;;;;;13.40;88.10;;;;;;4362315;32;44052;-80
2022/04/24 06:14:51;;;;;;;;;;;13.40;87.80;;;;;;4362240;32;43006;-80
2022/04/24 06:17:18;;;;;;;;;;;13.40;88.30;;;;;;4348391;32;44192;-80
2022/04/24 06:19:45;;;;;;;;;;;13.40;88.50;;;;;;4361632;32;43421;-80
2022/04/24 06:22:12;;;;;;;;;;;13.40;88.30;;;;;;4361910;32;43477;-80
2022/04/24 06:24:39;;;;;;;;;;;13.40;88.10;;;;;;4348890;32;43902;-80
2022/04/24 06:27:07;;;;;;;;;;;13.40;88.30;;;;;;4348402;32;43169;-80
2022/04/24 06:29:34;;;;;;;;;;;13.40;88.20;;;;;;4348766;32;44262;-80
2022/04/24 06:32:04;;;;;;;;;;;13.50;88.00;;;;;;4348224;32;43961;-80
2022/04/24 06:34:31;;;;;;;;;;;13.50;88.00;;;;;;4361615;32;43434;-80
2022/04/24 06:36:58;;;;;;;;;;;13.50;88.00;;;;;;4348271;32;44271;-80
2022/04/24 06:39:25;;;;;;;;;;;13.50;88.10;;;;;;4361248;32;43040;-80
2022/04/24 06:41:52;;;;;;;;;;;13.50;87.40;;;;;;4361338;32;44328;-80
2022/04/24 06:44:20;;;;;;;;;;;13.50;87.70;;;;;;4361275;32;42845;-80
2022/04/24 06:46:47;;;;;;;;;;;13.50;88.50;;;;;;4347927;32;44112;-80
2022/04/24 06:49:14;;;;;;;;;;;13.50;87.70;;;;;;4361296;32;44223;-80
2022/04/24 06:51:41;;;;;;;;;;;13.50;87.80;;;;;;4348333;32;44226;-81
2022/04/24 06:54:08;;;;;;;;;;;13.50;87.90;;;;;;4348536;32;43481;-80
2022/04/24 06:56:35;;;;;;;;;;;13.50;87.90;;;;;;4348255;32;44244;-80
2022/04/24 06:59:02;;;;;;;;;;;13.50;87.40;;;;;;4361212;32;42710;-80
2022/04/24 07:01:29;;;;;;;;;;;13.50;87.80;;;;;;4361060;32;43101;-80
2022/04/24 07:03:56;;;;;;;;;;;13.50;87.40;;;;;;4348265;32;44678;-80
2022/04/24 07:06:24;;;;;;;;;;;13.50;87.70;;;;;;4348257;32;45033;-80
2022/04/24 07:08:51;;;;;;;;;;;13.50;87.50;;;;;;4361361;32;43354;-80
2022/04/24 07:11:18;;;;;;;;;;;13.50;87.90;;;;;;4361382;32;44112;-80
2022/04/24 07:13:45;;;;;;;;;;;13.50;88.00;;;;;;4361061;32;43783;-80
2022/04/24 07:16:12;;;;;;;;;;;13.50;88.20;;;;;;4347665;32;42300;-80
2022/04/24 07:18:39;;;;;;;;;;;13.50;88.00;;;;;;4347699;32;43844;-80
2022/04/24 07:21:06;;;;;;;;;;;13.50;88.10;;;;;;4361354;32;45248;-80
2022/04/24 07:23:35;;;;;;;;;;;13.50;88.00;;;;;;4361114;32;46295;-80
2022/04/24 07:26:02;;;;;;;;;;;13.50;88.20;;;;;;4347862;32;44239;-80
2022/04/24 07:28:31;;;;;;;;;;;13.50;87.80;;;;;;4360841;32;43567;-80
2022/04/24 07:30:58;;;;;;;;;;;13.50;88.20;;;;;;4347589;32;43853;-80
2022/04/24 07:33:25;;;;;;;;;;;13.50;88.40;;;;;;4347775;32;43143;-80
2022/04/24 07:35:53;;;;;;;;;;;13.50;88.30;;;;;;4360532;32;44011;-80
2022/04/24 07:38:20;;;;;;;;;;;13.50;88.40;;;;;;4347655;32;43930;-80
2022/04/24 07:40:47;;;;;;;;;;;13.50;88.70;;;;;;4360697;32;42254;-80
2022/04/24 07:43:14;;;;;;;;;;;13.50;88.80;;;;;;4360438;32;43966;-80
2022/04/24 07:45:42;;;;;;;;;;;13.50;88.60;;;;;;4360501;32;43783;-80
2022/04/24 07:48:10;;;;;;;;;;;13.50;88.70;;;;;;4360793;32;45028;-80
2022/04/24 07:50:38;;;;;;;;;;;13.50;88.70;;;;;;4346296;32;44250;-80
2022/04/24 07:53:06;;;;;;;;;;;13.50;88.60;;;;;;4347550;32;44737;-80
2022/04/24 07:55:33;;;;;;;;;;;13.50;88.70;;;;;;4360729;32;43698;-80
2022/04/24 07:58:00;;;;;;;;;;;13.50;88.90;;;;;;4360769;32;43475;-80
2022/04/24 08:00:28;;;;;;;;;;;13.50;88.90;;;;;;4347568;32;43932;-80
2022/04/24 08:02:57;;;;;;;;;;;13.50;88.90;;;;;;4346971;32;43904;-80
2022/04/24 08:05:26;;;;;;;;;;;13.50;88.90;;;;;;4347342;32;42929;-80
2022/04/24 08:07:54;;;;;;;;;;;13.50;88.80;;;;;;4347388;32;43069;-80
2022/04/24 08:10:22;;;;;;;;;;;13.50;89.10;;;;;;4346890;32;44880;-80
2022/04/24 08:12:49;;;;;;;;;;;13.50;89.10;;;;;;4360175;32;44019;-80
2022/04/24 08:15:17;;;;;;;;;;;13.50;89.20;;;;;;4360697;32;44195;-80
2022/04/24 08:17:44;;;;;;;;;;;13.50;89.30;;;;;;4347221;32;45183;-79
2022/04/24 08:20:12;;;;;;;;;;;13.60;89.30;;;;;;4347082;32;44576;-80
2022/04/24 08:22:43;;;;;;;;;;;13.60;89.30;;;;;;4346794;32;43942;-80
2022/04/24 08:25:11;;;;;;;;;;;13.60;89.00;;;;;;4347292;32;43477;-80
2022/04/24 08:27:39;;;;;;;;;;;13.60;88.80;;;;;;4346593;32;44266;-80
2022/04/24 08:30:09;;;;;;;;;;;13.60;89.20;;;;;;4347339;32;44263;-80
2022/04/24 08:32:36;;;;;;;;;;;13.60;89.10;;;;;;4346909;32;43060;-79
2022/04/24 08:35:05;;;;;;;;;;;13.60;89.40;;;;;;4359808;32;43124;-78
2022/04/24 08:37:32;;;;;;;;;;;13.60;89.30;;;;;;4346514;32;43846;-80
2022/04/24 08:39:59;;;;;;;;;;;13.60;89.40;;;;;;4347018;32;43077;-80
2022/04/24 08:42:27;;;;;;;;;;;13.60;89.50;;;;;;4346404;32;43038;-80
2022/04/24 08:44:57;;;;;;;;;;;13.60;89.60;;;;;;4346447;32;44343;-80
2022/04/24 08:47:24;;;;;;;;;;;13.60;89.40;;;;;;4346748;32;43184;-80
2022/04/24 08:50:01;;;;;;;;;;;13.70;89.50;;;;;;4346354;32;45959;-80
2022/04/24 08:52:29;;;;;;;;;;;13.70;89.60;;;;;;4346833;32;44203;-80
2022/04/24 08:54:57;;;;;;;;;;;13.70;89.50;;;;;;4360167;32;43018;-80
2022/04/24 08:57:30;;;;;;;;;;;13.70;89.30;;;;;;4359689;32;43191;-80
2022/04/24 08:59:58;;;;;;;;;;;13.70;89.10;;;;;;4360133;32;43190;-80
2022/04/24 09:02:45;;;;;;;;;;;13.70;89.20;;;;;;4359403;32;45348;-80
2022/04/24 09:05:13;;;;;;;;;;;13.70;89.50;;;;;;4346425;33;43307;-79
2022/04/24 09:07:43;;;;;;;;;;;13.70;89.60;;;;;;4346625;33;43473;-80
2022/04/24 09:10:30;;;;;;;;;;;13.70;89.70;;;;;;4348795;33;45626;-80
2022/04/24 09:12:59;;;;;;;;;;;13.80;89.60;;;;;;4346321;33;43964;-80
2022/04/24 09:15:28;;;;;;;;;;;13.80;89.60;;;;;;4346231;33;45563;-80
2022/04/24 09:18:02;;;;;;;;;;;13.80;89.40;;;;;;4359669;33;45873;-80
2022/04/24 09:20:41;;;;;;;;;;;13.80;89.20;;;;;;4359891;33;42817;-80
2022/04/24 09:23:08;;;;;;;;;;;13.80;89.40;;;;;;4346575;33;43786;-80
2022/04/24 09:25:38;;;;;;;;;;;13.80;89.30;;;;;;4359662;33;43332;-80
2022/04/24 09:28:05;;;;;;;;;;;13.80;89.60;;;;;;4359696;33;44202;-80
2022/04/24 09:30:35;;;;;;;;;;;13.80;89.40;;;;;;4359414;33;43207;-80
2022/04/24 09:33:06;;;;;;;;;;;13.80;89.50;;;;;;4359806;33;42729;-79
2022/04/24 09:35:36;;;;;;;;;;;13.80;89.60;;;;;;4346484;33;43093;-79
2022/04/24 09:38:07;;;;;;;;;;;13.80;89.50;;;;;;4359489;33;44474;-80
2022/04/24 09:40:41;;;;;;;;;;;13.90;89.20;;;;;;4359724;33;44305;-80
2022/04/24 09:43:09;;;;;;;;;;;13.80;89.20;;;;;;4360084;33;43881;-80
2022/04/24 09:45:37;;;;;;;;;;;13.90;89.60;;;;;;4346404;33;43191;-80
2022/04/24 09:48:16;;;;;;;;;;;13.90;89.60;;;;;;4359260;33;44039;-79
2022/04/24 09:50:44;;;;;;;;;;;13.90;89.80;;;;;;4346235;33;43053;-80
2022/04/24 09:53:15;;;;;;;;;;;13.90;89.80;;;;;;4359415;33;42494;-79
2022/04/24 09:55:43;;;;;;;;;;;13.90;90.00;;;;;;4346551;33;43869;-80
2022/04/24 09:58:11;;;;;;;;;;;14.00;90.10;;;;;;4359271;33;43554;-80
2022/04/24 10:00:39;;;;;;;;;;;13.90;90.00;;;;;;4359602;33;43465;-79
2022/04/24 10:03:06;;;;;;;;;;;14.00;89.90;;;;;;4359134;33;44025;-80
2022/04/24 10:05:34;;;;;;;;;;;14.00;89.80;;;;;;4346037;33;44222;-79
2022/04/24 10:08:04;;;;;;;;;;;14.00;89.60;;;;;;4359603;33;44281;-80
2022/04/24 10:10:31;;;;;;;;;;;14.00;89.70;;;;;;4359182;33;44316;-80
2022/04/24 10:13:00;;;;;;;;;;;14.00;89.90;;;;;;4345754;33;43858;-80
2022/04/24 10:15:29;;;;;;;;;;;14.10;89.80;;;;;;4361650;32;42880;-80
2022/04/24 10:17:56;;;;;;;;;;;14.10;89.70;;;;;;4348524;32;43077;-80
2022/04/24 10:20:32;;;;;;;;;;;14.10;89.70;;;;;;4361705;32;42317;-80
2022/04/24 10:22:59;;;;;;;;;;;14.10;89.70;;;;;;4348837;32;43121;-80
2022/04/24 10:25:42;;;;;;;;;;;14.10;89.60;;;;;;4361587;32;42751;-80
2022/04/24 10:28:14;;;;;;;;;;;14.10;89.80;;;;;;4361726;32;43338;-80
2022/04/24 10:30:42;;;;;;;;;;;14.10;89.80;;;;;;4361441;32;45286;-80
2022/04/24 10:33:18;;;;;;;;;;;14.10;89.70;;;;;;4348446;32;43293;-80
2022/04/24 10:35:55;;;;;;;;;;;14.20;89.70;;;;;;4361564;32;43279;-80
2022/04/24 10:38:23;;;;;;;;;;;14.20;89.70;;;;;;4348119;32;43018;-80
2022/04/24 10:41:06;;;;;;;;;;;14.20;89.70;;;;;;4348121;32;44104;-80
2022/04/24 10:43:34;;;;;;;;;;;14.20;89.70;;;;;;4362050;32;43497;-80
2022/04/24 10:46:02;;;;;;;;;;;14.30;89.80;;;;;;4361588;32;43892;-80
2022/04/24 10:48:35;;;;;;;;;;;14.20;89.50;;;;;;4361891;32;43949;-80
2022/04/24 10:51:02;;;;;;;;;;;14.30;89.50;;;;;;4348162;32;42983;-80
2022/04/24 10:53:47;;;;;;;;;;;14.30;89.40;;;;;;4361394;32;43929;-80
2022/04/24 10:56:14;;;;;;;;;;;14.30;89.50;;;;;;4348177;32;42925;-80
2022/04/24 10:58:41;;;;;;;;;;;14.30;89.50;;;;;;4348312;32;44546;-80
2022/04/24 11:01:09;;;;;;;;;;;14.30;89.30;;;;;;4347843;32;42720;-81
2022/04/24 11:03:40;;;;;;;;;;;14.40;89.00;;;;;;4347831;32;43509;-80
2022/04/24 11:06:36;;;;;;;;;;;14.40;89.20;;;;;;4348133;32;43805;-80
2022/04/24 11:09:11;;;;;;;;;;;14.30;89.30;;;;;;4345559;32;42618;-80
2022/04/24 11:11:51;;;;;;;;;;;14.40;89.20;;;;;;4361031;32;42566;-80
2022/04/24 11:14:19;;;;;;;;;;;14.40;89.00;;;;;;4347712;32;44072;-80
2022/04/24 11:16:59;;;;;;;;;;;14.40;88.90;;;;;;4361484;32;44316;-81
2022/04/24 11:19:36;;;;;;;;;;;14.40;88.80;;;;;;4348230;32;43401;-81
2022/04/24 11:22:04;;;;;;;;;;;14.50;89.00;;;;;;4361468;32;45684;-81
2022/04/24 11:24:32;;;;;;;;;;;14.50;89.20;;;;;;4360488;32;45077;-80
2022/04/24 11:27:18;;;;;;;;;;;14.50;89.00;;;;;;4348382;32;19997;-80
2022/04/24 11:29:45;;;;;;;;;;;14.50;89.20;;;;;;4361158;32;42693;-80
2022/04/24 11:32:13;;;;;;;;;;;14.60;89.10;;;;;;4361039;32;42733;-80
2022/04/24 11:34:41;;;;;;;;;;;14.60;89.10;;;;;;4360672;32;43290;-80
2022/04/24 11:37:09;;;;;;;;;;;14.60;89.30;;;;;;4347743;32;43906;-80
2022/04/24 11:39:40;;;;;;;;;;;14.60;89.30;;;;;;4347482;32;44120;-80
2022/04/24 11:42:08;;;;;;;;;;;14.60;89.60;;;;;;4361072;32;44109;-81
2022/04/24 11:50:14;;;;;;;;;;;14.70;89.20;;;;;;4361114;32;44030;-80
2022/04/24 11:53:01;;;;;;;;;;;14.70;89.20;;;;;;4360784;32;44554;-80
2022/04/24 11:56:01;;;;;;;;;;;14.70;88.80;;;;;;4347494;32;43142;-80
2022/04/24 11:58:16;;;;;;;;;;;14.80;89.20;;;;;;4361388;32;19992;-81
2022/04/24 12:00:45;;;;;;;;;;;14.80;87.70;;;;;;4360302;32;42680;-80
2022/04/24 12:03:14;;;;;;;;;;;14.80;88.00;;;;;;4347169;32;44260;-81
2022/04/24 12:05:42;;;;;;;;;;;14.80;86.80;;;;;;4360277;32;42640;-81
2022/04/24 12:08:11;;;;;;;;;;;14.80;87.40;;;;;;4360212;32;42685;-81
2022/04/24 12:10:45;;;;;;;;;;;14.90;87.40;;;;;;4346842;32;43506;-80
2022/04/24 12:13:13;;;;;;;;;;;14.90;87.70;;;;;;4347245;32;43428;-81
2022/04/24 12:15:49;;;;;;;;;;;14.90;86.70;;;;;;4360385;32;43496;-82
2022/04/24 12:18:20;;;;;;;;;;;14.90;87.20;;;;;;4346901;32;43261;-80
2022/04/24 12:20:49;;;;;;;;;;;15.00;87.70;;;;;;4346604;32;45048;-80
2022/04/24 12:23:17;;;;;;;;;;;15.00;88.00;;;;;;4360333;32;45983;-80
2022/04/24 12:25:51;;;;;;;;;;;15.10;88.20;;;;;;4360452;32;43859;-80
2022/04/24 12:28:28;;;;;;;;;;;15.00;87.30;;;;;;4348275;32;20064;-81
2022/04/24 12:30:58;;;;;;;;;;;15.10;86.90;;;;;;4360327;32;43754;-80
2022/04/24 12:33:26;;;;;;;;;;;15.10;87.20;;;;;;4360298;32;44216;-80
2022/04/24 12:35:54;;;;;;;;;;;15.20;86.60;;;;;;4359606;32;44223;-80
2022/04/24 12:38:23;;;;;;;;;;;15.20;86.70;;;;;;4346554;32;42918;-81
2022/04/24 12:40:59;;;;;;;;;;;15.20;87.40;;;;;;4347136;32;43820;-80
2022/04/24 12:43:28;;;;;;;;;;;15.20;86.80;;;;;;4360183;32;42953;-80
2022/04/24 12:45:55;;;;;;;;;;;15.20;86.10;;;;;;4346323;32;43446;-80
2022/04/24 12:48:23;;;;;;;;;;;15.30;86.50;;;;;;4359842;32;42510;-80
2022/04/24 12:50:50;;;;;;;;;;;15.30;86.00;;;;;;4346446;32;44091;-80
2022/04/24 12:53:18;;;;;;;;;;;15.30;86.30;;;;;;4346644;32;44000;-80
2022/04/24 12:55:46;;;;;;;;;;;15.40;85.10;;;;;;4346850;32;43188;-80
2022/04/24 12:58:16;;;;;;;;;;;15.40;86.30;;;;;;4346770;32;44180;-80
2022/04/24 13:00:45;;;;;;;;;;;15.40;86.60;;;;;;4360354;32;43850;-81
2022/04/24 13:03:13;;;;;;;;;;;15.40;84.90;;;;;;4346158;33;44220;-81
2022/04/24 13:05:42;;;;;;;;;;;15.50;84.80;;;;;;4346458;33;42938;-81
2022/04/24 13:08:24;;;;;;;;;;;15.50;85.20;;;;;;4359948;33;44213;-81
2022/04/24 13:10:52;;;;;;;;;;;15.50;84.60;;;;;;4346758;33;43997;-81
2022/04/24 13:13:19;;;;;;;;;;;15.50;85.10;;;;;;4346246;33;44176;-81
2022/04/24 13:18:37;;;;;;;;;;;15.60;84.60;;;;;;4329598;33;45200;-81
2022/04/24 13:21:05;;;;;;;;;;;15.60;84.80;;;;;;4346408;33;44565;-80
2022/04/24 13:23:32;;;;;;;;;;;15.60;83.50;;;;;;4359512;33;44281;-81
2022/04/24 13:25:59;;;;;;;;;;;15.60;84.60;;;;;;4359530;33;42683;-81
2022/04/24 13:28:26;;;;;;;;;;;15.60;84.30;;;;;;4346080;33;44220;-81
2022/04/24 13:30:53;;;;;;;;;;;15.60;83.20;;;;;;4346060;33;43911;-82
2022/04/24 13:33:20;;;;;;;;;;;15.70;83.30;;;;;;4359761;33;44796;-82
2022/04/24 13:35:50;;;;;;;;;;;15.70;81.70;;;;;;4359841;33;44870;-82
2022/04/24 13:38:17;;;;;;;;;;;15.70;82.30;;;;;;4346024;33;44776;-81
2022/04/24 13:40:45;;;;;;;;;;;15.70;82.80;;;;;;4359391;33;43290;-81
2022/04/24 13:43:13;;;;;;;;;;;15.70;81.10;;;;;;4346593;33;43501;-81
2022/04/24 13:45:40;;;;;;;;;;;15.70;81.70;;;;;;4345927;33;43405;-81
2022/04/24 13:48:24;;;;;;;;;;;15.80;82.90;;;;;;4361174;32;44339;-82
2022/04/24 13:50:54;;;;;;;;;;;15.80;82.50;;;;;;4348832;32;43522;-81
2022/04/24 13:53:22;;;;;;;;;;;15.80;82.80;;;;;;4362145;32;44617;-81
2022/04/24 13:55:49;;;;;;;;;;;15.80;83.20;;;;;;4348855;32;44170;-82
2022/04/24 13:58:16;;;;;;;;;;;15.90;81.00;;;;;;4362392;32;44314;-81
2022/04/24 14:00:44;;;;;;;;;;;15.90;83.10;;;;;;4349104;32;43807;-81
2022/04/24 14:03:12;;;;;;;;;;;15.90;83.10;;;;;;4348537;32;42850;-81
2022/04/24 14:05:41;;;;;;;;;;;15.90;81.90;;;;;;4348684;32;43821;-81
2022/04/24 14:08:08;;;;;;;;;;;15.90;80.10;;;;;;4361910;32;42596;-81
2022/04/24 14:10:36;;;;;;;;;;;16.00;81.20;;;;;;4348893;32;43215;-81
2022/04/24 14:13:03;;;;;;;;;;;16.00;81.30;;;;;;4362107;32;44350;-80
2022/04/24 14:15:32;;;;;;;;;;;16.00;82.10;;;;;;4362341;32;44391;-81
2022/04/24 14:17:59;;;;;;;;;;;16.00;80.30;;;;;;4348364;32;43357;-81
2022/04/24 14:20:26;;;;;;;;;;;16.10;81.30;;;;;;4362374;32;43962;-80
2022/04/24 14:23:13;;;;;;;;;;;16.10;80.30;;;;;;4362190;32;46342;-80
2022/04/24 14:25:42;;;;;;;;;;;16.10;79.90;;;;;;4361919;32;44054;-81
2022/04/24 14:28:09;;;;;;;;;;;16.20;79.80;;;;;;4348367;32;43825;-80
2022/04/24 14:30:36;;;;;;;;;;;16.20;79.80;;;;;;4361686;32;44109;-80
2022/04/24 14:33:03;;;;;;;;;;;16.20;78.10;;;;;;4348247;32;45076;-80